X  Schließen METAR Luftfahrt Wetterdaten     EBBR Brussels Airport
Temperatur
15°C Temperatur
14°C Taupunkt
94% Feuchtigkeit



Wind
10 KM/S
6 MPS
3 M/S
5 KTS



300°
WNW
Aktuelle Wetterlage

Teilweise bewölkt Teilweise bewölkt
Luftdruck 1022.01 (hPa) - 30.18 (inHg)
Sichtweite 6 (Meile) - 9.7 (Km)
Flughafen
Flughafen Code EBBR

Position : Brussels Airport
Entfernung: 10 (Km)

Metar:
EBBR 240620Z 30005KT 9999 FEW012 BKN040 15/14 Q1022 NOSIG

Zeit: 24-07-2024 08:20 CEST